createdAt,value
2022-12-11T00:00:03.394Z,-1.40
2022-12-11T00:01:03.330Z,-1.40
2022-12-11T00:02:03.388Z,-1.40
2022-12-11T00:03:03.333Z,-1.50
2022-12-11T00:04:03.215Z,-1.40
2022-12-11T00:05:03.123Z,-1.50
2022-12-11T00:06:03.208Z,-1.40
2022-12-11T00:07:03.122Z,-1.50
2022-12-11T00:08:03.133Z,-1.50
2022-12-11T00:09:03.065Z,-1.50
2022-12-11T00:10:03.029Z,-1.50
2022-12-11T00:11:05.111Z,-1.50
2022-12-11T00:12:02.932Z,-1.50
2022-12-11T00:13:02.795Z,-1.50
2022-12-11T00:14:02.771Z,-1.50
2022-12-11T00:15:02.803Z,-1.50
2022-12-11T00:16:02.708Z,-1.50
2022-12-11T00:17:02.887Z,-1.50
2022-12-11T00:18:02.693Z,-1.50
2022-12-11T00:19:02.716Z,-1.50
2022-12-11T00:20:02.615Z,-1.50
2022-12-11T00:21:03.577Z,-1.50
2022-12-11T00:22:03.424Z,-1.50
2022-12-11T00:23:03.366Z,-1.50
2022-12-11T00:24:03.318Z,-1.50
2022-12-11T00:25:03.260Z,-1.60
2022-12-11T00:26:03.202Z,-1.60
2022-12-11T00:27:03.313Z,-1.60
2022-12-11T00:28:03.129Z,-1.60
2022-12-11T00:29:03.163Z,-1.60
2022-12-11T00:30:03.255Z,-1.60
2022-12-11T00:31:03.272Z,-1.60
2022-12-11T00:32:03.339Z,-1.60
2022-12-11T00:33:03.158Z,-1.60
2022-12-11T00:34:03.054Z,-1.60
2022-12-11T00:35:03.041Z,-1.60
2022-12-11T00:36:03.007Z,-1.60
2022-12-11T00:37:03.204Z,-1.60
2022-12-11T00:38:03.095Z,-1.60
2022-12-11T00:39:03.069Z,-1.60
2022-12-11T00:40:03.123Z,-1.60
2022-12-11T00:41:03.067Z,-1.70
2022-12-11T00:42:02.976Z,-1.70
2022-12-11T00:43:02.938Z,-1.70
2022-12-11T00:44:02.866Z,-1.70
2022-12-11T00:45:02.820Z,-1.70
2022-12-11T00:46:02.788Z,-1.70
2022-12-11T00:47:03.659Z,-1.70
2022-12-11T00:48:03.523Z,-1.70
2022-12-11T00:49:03.605Z,-1.70
2022-12-11T00:50:03.495Z,-1.70
2022-12-11T00:51:03.164Z,-1.70
2022-12-11T00:52:03.133Z,-1.70
2022-12-11T00:53:03.008Z,-1.70
2022-12-11T00:54:03.044Z,-1.70
2022-12-11T00:55:02.965Z,-1.70
2022-12-11T00:56:02.844Z,-1.70
2022-12-11T00:57:02.825Z,-1.70
2022-12-11T00:58:02.690Z,-1.70
2022-12-11T00:59:02.590Z,-1.70
2022-12-11T01:00:03.598Z,-1.70
2022-12-11T01:01:03.121Z,-1.70
2022-12-11T01:02:03.016Z,-1.70
2022-12-11T01:03:02.929Z,-1.70
2022-12-11T01:04:02.878Z,-1.70
2022-12-11T01:05:02.829Z,-1.70
2022-12-11T01:06:02.872Z,-1.70
2022-12-11T01:07:02.842Z,-1.70
2022-12-11T01:08:02.933Z,-1.70
2022-12-11T01:09:02.806Z,-1.70
2022-12-11T01:10:02.990Z,-1.70
2022-12-11T01:11:02.833Z,-1.70
2022-12-11T01:12:02.745Z,-1.70
2022-12-11T01:13:02.835Z,-1.70
2022-12-11T01:14:02.663Z,-1.70
2022-12-11T01:15:02.728Z,-1.70
2022-12-11T01:16:03.550Z,-1.70
2022-12-11T01:17:03.600Z,-1.70
2022-12-11T01:18:03.475Z,-1.70
2022-12-11T01:19:03.423Z,-1.70
2022-12-11T01:20:03.368Z,-1.70
2022-12-11T01:21:03.385Z,-1.70
2022-12-11T01:22:03.350Z,-1.70
2022-12-11T01:23:03.340Z,-1.70
2022-12-11T01:24:03.193Z,-1.70
2022-12-11T01:25:03.199Z,-1.70
2022-12-11T01:26:03.132Z,-1.70
2022-12-11T01:27:03.071Z,-1.70
2022-12-11T01:28:03.015Z,-1.70
2022-12-11T01:29:02.742Z,-1.70
2022-12-11T01:30:02.829Z,-1.70
2022-12-11T01:31:02.869Z,-1.70
2022-12-11T01:32:02.785Z,-1.70
2022-12-11T01:33:02.855Z,-1.70
2022-12-11T01:34:02.865Z,-1.80
2022-12-11T01:35:02.821Z,-1.80
2022-12-11T01:36:02.838Z,-1.80
2022-12-11T01:37:02.842Z,-1.80
2022-12-11T01:38:02.804Z,-1.80
2022-12-11T01:39:02.811Z,-1.80
2022-12-11T01:40:02.847Z,-1.80
2022-12-11T01:41:02.706Z,-1.80
2022-12-11T01:42:03.556Z,-1.80
2022-12-11T01:43:03.657Z,-1.80
2022-12-11T01:44:03.536Z,-1.80
2022-12-11T01:45:03.401Z,-1.80
2022-12-11T01:46:03.484Z,-1.80
2022-12-11T01:47:03.368Z,-1.80
2022-12-11T01:48:03.432Z,-1.80
2022-12-11T01:49:03.372Z,-1.80
2022-12-11T01:50:03.301Z,-1.80
2022-12-11T01:51:03.260Z,-1.80
2022-12-11T01:52:03.171Z,-1.80
2022-12-11T01:53:03.153Z,-1.80
2022-12-11T01:54:03.096Z,-1.80
2022-12-11T01:55:03.114Z,-1.80
2022-12-11T01:56:03.015Z,-1.80
2022-12-11T01:57:02.934Z,-1.80
2022-12-11T01:58:02.928Z,-1.80
2022-12-11T01:59:02.896Z,-1.80
2022-12-11T02:00:02.811Z,-1.80
2022-12-11T02:01:02.835Z,-1.80
2022-12-11T02:02:02.801Z,-1.80
2022-12-11T02:03:02.689Z,-1.80
2022-12-11T02:04:02.645Z,-1.80
2022-12-11T02:05:02.668Z,-1.80
2022-12-11T02:06:02.626Z,-1.80
2022-12-11T02:07:02.625Z,-1.80
2022-12-11T02:08:03.540Z,-1.80
2022-12-11T02:09:03.408Z,-1.80
2022-12-11T02:10:03.338Z,-1.80
2022-12-11T02:11:03.394Z,-1.80
2022-12-11T02:12:03.305Z,-1.80
2022-12-11T02:13:03.309Z,-1.80
2022-12-11T02:14:03.168Z,-1.80
2022-12-11T02:15:03.140Z,-1.80
2022-12-11T02:16:03.184Z,-1.80
2022-12-11T02:17:03.132Z,-1.80
2022-12-11T02:18:03.060Z,-1.90
2022-12-11T02:19:02.876Z,-1.80
2022-12-11T02:20:02.856Z,-1.90
2022-12-11T02:21:02.823Z,-1.90
2022-12-11T02:22:02.760Z,-1.90
2022-12-11T02:23:02.787Z,-1.90
2022-12-11T02:24:02.696Z,-1.90
2022-12-11T02:25:03.527Z,-1.90
2022-12-11T02:26:03.443Z,-1.90
2022-12-11T02:27:03.438Z,-1.90
2022-12-11T02:28:03.493Z,-1.90
2022-12-11T02:29:03.358Z,-1.90
2022-12-11T02:30:03.319Z,-1.90
2022-12-11T02:31:03.281Z,-1.90
2022-12-11T02:32:03.289Z,-1.90
2022-12-11T02:33:03.228Z,-1.90
2022-12-11T02:34:03.125Z,-1.90
2022-12-11T02:35:03.079Z,-1.90
2022-12-11T02:36:02.995Z,-1.90
2022-12-11T02:37:02.966Z,-1.90
2022-12-11T02:38:02.935Z,-1.90
2022-12-11T02:39:02.998Z,-1.90
2022-12-11T02:40:02.873Z,-1.90
2022-12-11T02:41:02.910Z,-1.90
2022-12-11T02:42:02.936Z,-1.90
2022-12-11T02:43:02.919Z,-1.90
2022-12-11T02:44:02.823Z,-1.90
2022-12-11T02:45:02.649Z,-1.90
2022-12-11T02:46:02.604Z,-1.90
2022-12-11T02:47:02.585Z,-1.90
2022-12-11T02:48:02.636Z,-1.90
2022-12-11T02:49:03.568Z,-1.90
2022-12-11T02:50:03.469Z,-1.90
2022-12-11T02:51:03.397Z,-1.90
2022-12-11T02:52:03.290Z,-1.90
2022-12-11T02:53:03.245Z,-1.90
2022-12-11T02:54:03.298Z,-1.90
2022-12-11T02:55:03.240Z,-1.90
2022-12-11T02:56:03.162Z,-1.90
2022-12-11T02:57:03.092Z,-1.90
2022-12-11T02:58:03.249Z,-1.90
2022-12-11T02:59:03.114Z,-2.00
2022-12-11T03:00:03.004Z,-2.00
2022-12-11T03:01:03.008Z,-2.00
2022-12-11T03:02:02.886Z,-2.00
2022-12-11T03:03:02.662Z,-2.00
2022-12-11T03:04:02.709Z,-2.00
2022-12-11T03:05:03.576Z,-2.00
2022-12-11T03:06:03.457Z,-2.00
2022-12-11T03:07:03.406Z,-2.00
2022-12-11T03:08:03.462Z,-2.00
2022-12-11T03:09:03.256Z,-2.00
2022-12-11T03:10:03.248Z,-2.00
2022-12-11T03:11:03.129Z,-2.00
2022-12-11T03:12:03.099Z,-2.00
2022-12-11T03:13:03.062Z,-2.00
2022-12-11T03:14:03.059Z,-2.00
2022-12-11T03:15:02.964Z,-2.00
2022-12-11T03:16:03.000Z,-2.00
2022-12-11T03:17:02.865Z,-2.00
2022-12-11T03:18:02.908Z,-2.00
2022-12-11T03:19:02.964Z,-2.00
2022-12-11T03:20:02.822Z,-2.00
2022-12-11T03:21:02.824Z,-2.00
2022-12-11T03:22:02.770Z,-2.00
2022-12-11T03:23:02.765Z,-2.00
2022-12-11T03:24:02.921Z,-2.00
2022-12-11T03:25:02.736Z,-2.00
2022-12-11T03:26:02.691Z,-2.00
2022-12-11T03:27:04.480Z,-2.00
2022-12-11T03:28:03.577Z,-2.00
2022-12-11T03:29:02.635Z,-2.00
2022-12-11T03:30:02.574Z,-2.00
2022-12-11T03:31:03.605Z,-2.00
2022-12-11T03:32:02.579Z,-2.00
2022-12-11T03:33:03.510Z,-2.00
2022-12-11T03:34:03.536Z,-2.00
2022-12-11T03:35:03.599Z,-2.00
2022-12-11T03:36:03.588Z,-2.00
2022-12-11T03:37:03.484Z,-2.00
2022-12-11T03:38:03.528Z,-2.00
2022-12-11T03:39:03.417Z,-2.00
2022-12-11T03:40:03.364Z,-2.00
2022-12-11T03:41:03.205Z,-2.00
2022-12-11T03:42:03.136Z,-2.00
2022-12-11T03:43:03.050Z,-2.00
2022-12-11T03:44:03.099Z,-2.00
2022-12-11T03:45:03.078Z,-2.00
2022-12-11T03:46:03.075Z,-2.10
2022-12-11T03:47:03.012Z,-2.10
2022-12-11T03:48:02.990Z,-2.10
2022-12-11T03:49:03.025Z,-2.10
2022-12-11T03:50:02.933Z,-2.10
2022-12-11T03:51:02.996Z,-2.10
2022-12-11T03:52:02.893Z,-2.10
2022-12-11T03:53:02.693Z,-2.10
2022-12-11T03:54:02.681Z,-2.10
2022-12-11T03:55:02.616Z,-2.10
2022-12-11T03:56:03.600Z,-2.10
2022-12-11T03:57:02.555Z,-2.10
2022-12-11T03:58:03.493Z,-2.10
2022-12-11T03:59:03.499Z,-2.10
2022-12-11T04:00:03.416Z,-2.10
2022-12-11T04:01:03.359Z,-2.10
2022-12-11T04:02:03.416Z,-2.10
2022-12-11T04:03:05.798Z,-2.10
2022-12-11T04:04:03.234Z,-2.10
2022-12-11T04:05:03.205Z,-2.10
2022-12-11T04:06:03.197Z,-2.10
2022-12-11T04:07:03.168Z,-2.10
2022-12-11T04:08:03.120Z,-2.10
2022-12-11T04:09:03.076Z,-2.10
2022-12-11T04:10:03.036Z,-2.10
2022-12-11T04:11:02.936Z,-2.10
2022-12-11T04:12:02.753Z,-2.10
2022-12-11T04:13:02.775Z,-2.10
2022-12-11T04:14:02.737Z,-2.10
2022-12-11T04:15:02.774Z,-2.10
2022-12-11T04:16:02.614Z,-2.10
2022-12-11T04:17:02.647Z,-2.10
2022-12-11T04:18:02.678Z,-2.10
2022-12-11T04:19:02.668Z,-2.10
2022-12-11T04:20:03.460Z,-2.10
2022-12-11T04:21:03.524Z,-2.10
2022-12-11T04:22:03.396Z,-2.10
2022-12-11T04:23:03.277Z,-2.10
2022-12-11T04:24:03.359Z,-2.10
2022-12-11T04:25:03.220Z,-2.10
2022-12-11T04:26:03.153Z,-2.10
2022-12-11T04:27:02.973Z,-2.10
2022-12-11T04:28:03.031Z,-2.10
2022-12-11T04:29:02.910Z,-2.10
2022-12-11T04:30:03.015Z,-2.10
2022-12-11T04:31:02.977Z,-2.10
2022-12-11T04:32:02.856Z,-2.10
2022-12-11T04:33:02.829Z,-2.10
2022-12-11T04:34:02.771Z,-2.10
2022-12-11T04:35:02.717Z,-2.10
2022-12-11T04:36:02.677Z,-2.10
2022-12-11T04:37:02.653Z,-2.10
2022-12-11T04:38:03.529Z,-2.10
2022-12-11T04:39:03.443Z,-2.10
2022-12-11T04:40:03.466Z,-2.10
2022-12-11T04:41:03.336Z,-2.10
2022-12-11T04:42:03.353Z,-2.10
2022-12-11T04:43:03.277Z,-2.10
2022-12-11T04:44:03.188Z,-2.10
2022-12-11T04:45:03.021Z,-2.10
2022-12-11T04:46:02.962Z,-2.10
2022-12-11T04:47:02.778Z,-2.10
2022-12-11T04:48:02.813Z,-2.10
2022-12-11T04:49:02.738Z,-2.10
2022-12-11T04:50:02.698Z,-2.10
2022-12-11T04:51:03.523Z,-2.10
2022-12-11T04:52:03.468Z,-2.10
2022-12-11T04:53:03.413Z,-2.10
2022-12-11T04:54:03.354Z,-2.10
2022-12-11T04:55:03.390Z,-2.10
2022-12-11T04:56:03.187Z,-2.10
2022-12-11T04:57:03.246Z,-2.10
2022-12-11T04:58:03.161Z,-2.10
2022-12-11T04:59:03.039Z,-2.20
2022-12-11T05:00:03.074Z,-2.10
2022-12-11T05:01:02.855Z,-2.10
2022-12-11T05:02:02.822Z,-2.10
2022-12-11T05:03:02.828Z,-2.20
2022-12-11T05:04:02.733Z,-2.20
2022-12-11T05:05:02.722Z,-2.20
2022-12-11T05:06:02.652Z,-2.20
2022-12-11T05:07:03.481Z,-2.20
2022-12-11T05:08:03.424Z,-2.20
2022-12-11T05:09:03.340Z,-2.20
2022-12-11T05:10:03.383Z,-2.20
2022-12-11T05:11:03.199Z,-2.20
2022-12-11T05:12:03.156Z,-2.20
2022-12-11T05:13:03.069Z,-2.20
2022-12-11T05:14:02.886Z,-2.20
2022-12-11T05:15:02.941Z,-2.20
2022-12-11T05:16:02.872Z,-2.20
2022-12-11T05:17:02.784Z,-2.20
2022-12-11T05:18:02.663Z,-2.20
2022-12-11T05:19:02.624Z,-2.20
2022-12-11T05:20:02.660Z,-2.20
2022-12-11T05:21:03.575Z,-2.20
2022-12-11T05:22:03.470Z,-2.20
2022-12-11T05:23:03.296Z,-2.20
2022-12-11T05:24:03.258Z,-2.20
2022-12-11T05:25:03.457Z,-2.20
2022-12-11T05:26:03.386Z,-2.20
2022-12-11T05:27:03.283Z,-2.20
2022-12-11T05:28:03.167Z,-2.20
2022-12-11T05:29:03.053Z,-2.20
2022-12-11T05:30:03.217Z,-2.20
2022-12-11T05:31:03.100Z,-2.20
2022-12-11T05:32:02.940Z,-2.20
2022-12-11T05:33:02.869Z,-2.20
2022-12-11T05:34:02.804Z,-2.20
2022-12-11T05:35:02.845Z,-2.20
2022-12-11T05:36:03.210Z,-2.20
2022-12-11T05:37:03.164Z,-2.20
2022-12-11T05:38:03.062Z,-2.20
2022-12-11T05:39:03.020Z,-2.20
2022-12-11T05:40:02.875Z,-2.20
2022-12-11T05:41:02.830Z,-2.20
2022-12-11T05:42:02.735Z,-2.20
2022-12-11T05:43:02.634Z,-2.20
2022-12-11T05:44:03.588Z,-2.30
2022-12-11T05:45:03.604Z,-2.30
2022-12-11T05:46:03.446Z,-2.30
2022-12-11T05:47:03.560Z,-2.30
2022-12-11T05:48:03.371Z,-2.30
2022-12-11T05:49:02.765Z,-2.30
2022-12-11T05:50:02.886Z,-2.30
2022-12-11T05:51:02.839Z,-2.30
2022-12-11T05:52:02.934Z,-2.30
2022-12-11T05:53:02.880Z,-2.30
2022-12-11T05:54:02.748Z,-2.30
2022-12-11T05:55:02.845Z,-2.30
2022-12-11T05:56:02.912Z,-2.30
2022-12-11T05:57:02.697Z,-2.30
2022-12-11T05:58:02.662Z,-2.30
2022-12-11T05:59:02.603Z,-2.30
2022-12-11T06:00:03.643Z,-2.30
2022-12-11T06:01:03.406Z,-2.30
2022-12-11T06:02:03.587Z,-2.30
2022-12-11T06:03:03.445Z,-2.30
2022-12-11T06:04:03.367Z,-2.30
2022-12-11T06:05:03.454Z,-2.30
2022-12-11T06:06:03.398Z,-2.30
2022-12-11T06:07:03.366Z,-2.30
2022-12-11T06:08:03.392Z,-2.30
2022-12-11T06:09:03.258Z,-2.30
2022-12-11T06:10:03.298Z,-2.30
2022-12-11T06:11:03.169Z,-2.30
2022-12-11T06:12:03.089Z,-2.30
2022-12-11T06:13:03.101Z,-2.30
2022-12-11T06:14:02.955Z,-2.30
2022-12-11T06:15:02.882Z,-2.30
2022-12-11T06:16:02.938Z,-2.30
2022-12-11T06:17:02.910Z,-2.30
2022-12-11T06:18:02.803Z,-2.30
2022-12-11T06:19:02.807Z,-2.30
2022-12-11T06:20:02.585Z,-2.30
2022-12-11T06:21:03.641Z,-2.30
2022-12-11T06:22:02.629Z,-2.30
2022-12-11T06:23:03.529Z,-2.40
2022-12-11T06:24:04.091Z,-2.30
2022-12-11T06:25:03.381Z,-2.40
2022-12-11T06:26:03.286Z,-2.40
2022-12-11T06:27:03.100Z,-2.40
2022-12-11T06:28:03.064Z,-2.40
2022-12-11T06:29:06.291Z,-2.30
2022-12-11T06:30:03.075Z,-2.40
2022-12-11T06:31:03.180Z,-2.40
2022-12-11T06:32:03.106Z,-2.40
2022-12-11T06:33:02.865Z,-2.40
2022-12-11T06:34:02.962Z,-2.40
2022-12-11T06:35:02.932Z,-2.30
2022-12-11T06:36:02.940Z,-2.40
2022-12-11T06:37:02.900Z,-2.40
2022-12-11T06:38:02.799Z,-2.40
2022-12-11T06:39:02.811Z,-2.40
2022-12-11T06:40:02.808Z,-2.40
2022-12-11T06:41:02.739Z,-2.30
2022-12-11T06:42:03.513Z,-2.40
2022-12-11T06:43:03.441Z,-2.40
2022-12-11T06:44:03.410Z,-2.40
2022-12-11T06:45:03.346Z,-2.40
2022-12-11T06:46:04.129Z,-2.40
2022-12-11T06:47:03.306Z,-2.40
2022-12-11T06:48:03.194Z,-2.30
2022-12-11T06:49:03.255Z,-2.40
2022-12-11T06:50:03.088Z,-2.30
2022-12-11T06:51:03.049Z,-2.30
2022-12-11T06:52:03.063Z,-2.30
2022-12-11T06:53:03.030Z,-2.30
2022-12-11T06:54:02.961Z,-2.30
2022-12-11T06:55:03.039Z,-2.30
2022-12-11T06:56:03.711Z,-2.30
2022-12-11T06:57:03.566Z,-2.30
2022-12-11T06:58:03.464Z,-2.30
2022-12-11T06:59:07.233Z,-2.30
2022-12-11T07:00:03.504Z,-2.30
2022-12-11T07:01:03.617Z,-2.30
2022-12-11T07:02:03.575Z,-2.30
2022-12-11T07:03:03.509Z,-2.30
2022-12-11T07:04:03.460Z,-2.40
2022-12-11T07:05:03.383Z,-2.40
2022-12-11T07:06:03.318Z,-2.40
2022-12-11T07:07:03.292Z,-2.40
2022-12-11T07:08:03.208Z,-2.40
2022-12-11T07:09:03.076Z,-2.40
2022-12-11T07:10:07.856Z,-2.40
2022-12-11T07:11:03.652Z,-2.40
2022-12-11T07:12:03.491Z,-2.40
2022-12-11T07:13:04.022Z,-2.40
2022-12-11T07:14:03.282Z,-2.40
2022-12-11T07:15:03.353Z,-2.40
2022-12-11T07:16:03.332Z,-2.40
2022-12-11T07:17:03.284Z,-2.40
2022-12-11T07:18:03.262Z,-2.40
2022-12-11T07:19:03.129Z,-2.40
2022-12-11T07:20:03.043Z,-2.40
2022-12-11T07:21:03.218Z,-2.40
2022-12-11T07:22:03.083Z,-2.50
2022-12-11T07:23:03.024Z,-2.40
2022-12-11T07:24:03.035Z,-2.40
2022-12-11T07:25:02.881Z,-2.40
2022-12-11T07:26:03.041Z,-2.40
2022-12-11T07:27:02.883Z,-2.40
2022-12-11T07:28:02.958Z,-2.40
2022-12-11T07:29:02.875Z,-2.40
2022-12-11T07:30:02.714Z,-2.40
2022-12-11T07:31:02.763Z,-2.40
2022-12-11T07:32:02.671Z,-2.40
2022-12-11T07:33:03.550Z,-2.40
2022-12-11T07:34:03.446Z,-2.40
2022-12-11T07:35:03.492Z,-2.40
2022-12-11T07:36:03.409Z,-2.40
2022-12-11T07:37:03.410Z,-2.40
2022-12-11T07:38:03.455Z,-2.40
2022-12-11T07:39:03.395Z,-2.40
2022-12-11T07:40:03.388Z,-2.40
2022-12-11T07:41:03.289Z,-2.40
2022-12-11T07:42:03.294Z,-2.40
2022-12-11T07:43:03.236Z,-2.40
2022-12-11T07:44:03.179Z,-2.40
2022-12-11T07:45:03.244Z,-2.40
2022-12-11T07:46:03.257Z,-2.40
2022-12-11T07:47:03.176Z,-2.40
2022-12-11T07:48:03.003Z,-2.40
2022-12-11T07:49:02.944Z,-2.40
2022-12-11T07:50:02.887Z,-2.40
2022-12-11T07:51:02.817Z,-2.40
2022-12-11T07:52:02.727Z,-2.40
2022-12-11T07:53:02.712Z,-2.40
2022-12-11T07:54:02.637Z,-2.40
2022-12-11T07:55:02.596Z,-2.40
2022-12-11T07:56:03.586Z,-2.40
2022-12-11T07:57:03.423Z,-2.40
2022-12-11T07:58:03.373Z,-2.40
2022-12-11T07:59:03.345Z,-2.40
2022-12-11T08:00:03.269Z,-2.40
2022-12-11T08:01:03.184Z,-2.40
2022-12-11T08:02:03.185Z,-2.40
2022-12-11T08:03:03.068Z,-2.40
2022-12-11T08:04:02.993Z,-2.30
2022-12-11T08:05:02.915Z,-2.40
2022-12-11T08:06:02.930Z,-2.30
2022-12-11T08:07:02.929Z,-2.40
2022-12-11T08:08:02.908Z,-2.40
2022-12-11T08:09:02.812Z,-2.40
2022-12-11T08:10:02.712Z,-2.30
2022-12-11T08:11:02.648Z,-2.40
2022-12-11T08:12:02.855Z,-2.30
2022-12-11T08:13:02.708Z,-2.30
2022-12-11T08:14:02.624Z,-2.30
2022-12-11T08:15:03.537Z,-2.30
2022-12-11T08:16:03.491Z,-2.40
2022-12-11T08:17:03.475Z,-2.30
2022-12-11T08:18:03.367Z,-2.30
2022-12-11T08:19:03.261Z,-2.30
2022-12-11T08:20:03.215Z,-2.30
2022-12-11T08:21:03.077Z,-2.30
2022-12-11T08:22:03.099Z,-2.30
2022-12-11T08:23:02.965Z,-2.30
2022-12-11T08:24:02.856Z,-2.30
2022-12-11T08:25:02.772Z,-2.30
2022-12-11T08:26:02.782Z,-2.30
2022-12-11T08:27:02.728Z,-2.30
2022-12-11T08:28:02.793Z,-2.30
2022-12-11T08:29:02.833Z,-2.30
2022-12-11T08:30:02.720Z,-2.30
2022-12-11T08:31:02.808Z,-2.30
2022-12-11T08:32:05.283Z,-2.30
2022-12-11T08:33:02.649Z,-2.30
2022-12-11T08:34:03.573Z,-2.30
2022-12-11T08:35:03.570Z,-2.30
2022-12-11T08:36:03.439Z,-2.30
2022-12-11T08:37:03.482Z,-2.30
2022-12-11T08:38:03.329Z,-2.30
2022-12-11T08:39:03.221Z,-2.30
2022-12-11T08:40:03.206Z,-2.30
2022-12-11T08:41:03.012Z,-2.30
2022-12-11T08:42:03.134Z,-2.30
2022-12-11T08:43:02.944Z,-2.30
2022-12-11T08:44:02.914Z,-2.30
2022-12-11T08:45:03.023Z,-2.30
2022-12-11T08:46:02.862Z,-2.30
2022-12-11T08:47:02.756Z,-2.30
2022-12-11T08:48:02.615Z,-2.30
2022-12-11T08:49:02.655Z,-2.30
2022-12-11T08:50:02.671Z,-2.30
2022-12-11T08:51:02.678Z,-2.30
2022-12-11T08:52:02.738Z,-2.30
2022-12-11T08:53:02.594Z,-2.30
2022-12-11T08:54:03.646Z,-2.30
2022-12-11T08:55:03.467Z,-2.30
2022-12-11T08:56:03.437Z,-2.30
2022-12-11T08:57:03.410Z,-2.30
2022-12-11T08:58:03.234Z,-2.30
2022-12-11T08:59:03.225Z,-2.20
2022-12-11T09:00:03.134Z,-2.20
2022-12-11T09:01:03.047Z,-2.30
2022-12-11T09:02:03.090Z,-2.20
2022-12-11T09:03:02.901Z,-2.20
2022-12-11T09:04:02.931Z,-2.20
2022-12-11T09:05:02.829Z,-2.20
2022-12-11T09:06:02.715Z,-2.20
2022-12-11T09:07:02.816Z,-2.20
2022-12-11T09:08:02.798Z,-2.20
2022-12-11T09:09:02.617Z,-2.20
2022-12-11T09:10:03.604Z,-2.10
2022-12-11T09:11:03.500Z,-2.10
2022-12-11T09:12:03.500Z,-2.10
2022-12-11T09:13:03.345Z,-2.10
2022-12-11T09:14:07.514Z,-2.10
2022-12-11T09:15:03.222Z,-2.10
2022-12-11T09:16:03.131Z,-2.00
2022-12-11T09:17:03.215Z,-2.00
2022-12-11T09:18:03.135Z,-2.00
2022-12-11T09:19:03.166Z,-2.00
2022-12-11T09:20:03.054Z,-2.00
2022-12-11T09:21:02.984Z,-2.00
2022-12-11T09:22:02.969Z,-2.00
2022-12-11T09:23:02.928Z,-2.00
2022-12-11T09:24:02.893Z,-2.00
2022-12-11T09:25:02.760Z,-2.00
2022-12-11T09:26:02.766Z,-2.00
2022-12-11T09:27:02.809Z,-2.00
2022-12-11T09:28:02.707Z,-2.00
2022-12-11T09:29:02.605Z,-1.90
2022-12-11T09:30:03.534Z,-1.90
2022-12-11T09:31:03.490Z,-1.90
2022-12-11T09:32:03.481Z,-1.90
2022-12-11T09:33:03.284Z,-1.90
2022-12-11T09:34:03.304Z,-1.90
2022-12-11T09:35:03.138Z,-1.90
2022-12-11T09:36:03.165Z,-1.90
2022-12-11T09:37:03.222Z,-1.90
2022-12-11T09:38:03.043Z,-1.90
2022-12-11T09:39:03.094Z,-1.90
2022-12-11T09:40:07.500Z,-1.90
2022-12-11T09:41:03.005Z,-1.90
2022-12-11T09:42:03.022Z,-1.90
2022-12-11T09:43:02.926Z,-1.90
2022-12-11T09:44:02.837Z,-1.90
2022-12-11T09:45:02.762Z,-1.90
2022-12-11T09:46:02.832Z,-1.90
2022-12-11T09:47:02.717Z,-1.90
2022-12-11T09:48:02.680Z,-1.90
2022-12-11T09:49:02.564Z,-1.90
2022-12-11T09:50:03.615Z,-1.90
2022-12-11T09:51:03.526Z,-1.90
2022-12-11T09:52:03.556Z,-1.90
2022-12-11T09:53:03.373Z,-1.90
2022-12-11T09:54:03.278Z,-1.90
2022-12-11T09:55:03.289Z,-1.80
2022-12-11T09:56:03.240Z,-1.90
2022-12-11T09:57:03.256Z,-1.80
2022-12-11T09:58:03.182Z,-1.80
2022-12-11T09:59:03.005Z,-1.80
2022-12-11T10:00:05.392Z,-1.80
2022-12-11T10:01:02.861Z,-1.80
2022-12-11T10:02:02.798Z,-1.80
2022-12-11T10:03:02.746Z,-1.70
2022-12-11T10:04:02.673Z,-1.70
2022-12-11T10:05:02.701Z,-1.70
2022-12-11T10:06:04.699Z,-1.70
2022-12-11T10:07:03.628Z,-1.70
2022-12-11T10:08:03.479Z,-1.60
2022-12-11T10:09:03.390Z,-1.60
2022-12-11T10:10:03.287Z,-1.60
2022-12-11T10:11:03.358Z,-1.60
2022-12-11T10:12:03.301Z,-1.60
2022-12-11T10:13:03.279Z,-1.60
2022-12-11T10:14:03.342Z,-1.60
2022-12-11T10:15:03.407Z,-1.50
2022-12-11T10:16:04.034Z,-1.50
2022-12-11T10:17:03.361Z,-1.50
2022-12-11T10:18:05.062Z,-1.50
2022-12-11T10:19:03.208Z,-1.40
2022-12-11T10:20:03.186Z,-1.40
2022-12-11T10:21:03.021Z,-1.40
2022-12-11T10:22:02.942Z,-1.30
2022-12-11T10:23:02.900Z,-1.30
2022-12-11T10:24:02.955Z,-1.30
2022-12-11T10:25:11.755Z,-1.30
2022-12-11T10:26:02.878Z,-1.30
2022-12-11T10:27:02.965Z,-1.30
2022-12-11T10:28:02.891Z,-1.20
2022-12-11T10:29:02.910Z,-1.30
2022-12-11T10:30:02.779Z,-1.20
2022-12-11T10:31:02.810Z,-1.20
2022-12-11T10:32:02.827Z,-1.20
2022-12-11T10:33:02.651Z,-1.20
2022-12-11T10:34:02.594Z,-1.10
2022-12-11T10:35:03.496Z,-1.10
2022-12-11T10:36:03.499Z,-1.10
2022-12-11T10:37:03.524Z,-1.10
2022-12-11T10:38:03.425Z,-1.10
2022-12-11T10:39:03.307Z,-1.10
2022-12-11T10:40:03.245Z,-1.00
2022-12-11T10:41:03.154Z,-1.00
2022-12-11T10:42:03.159Z,-1.00
2022-12-11T10:43:03.059Z,-1.00
2022-12-11T10:44:02.947Z,-1.00
2022-12-11T10:45:02.890Z,-1.00
2022-12-11T10:46:02.975Z,-1.00
2022-12-11T10:47:02.898Z,-1.00
2022-12-11T10:48:02.736Z,-1.00
2022-12-11T10:49:02.824Z,-1.00
2022-12-11T10:50:02.697Z,-1.00
2022-12-11T10:51:02.558Z,-0.90
2022-12-11T10:52:02.638Z,-0.90
2022-12-11T10:53:02.600Z,-0.90
2022-12-11T10:54:05.664Z,-0.90
2022-12-11T10:55:02.607Z,-0.90
2022-12-11T10:56:02.640Z,-0.90
2022-12-11T10:57:02.747Z,-0.90
2022-12-11T10:58:03.524Z,-0.90
2022-12-11T10:59:03.509Z,-0.90
2022-12-11T11:00:03.373Z,-0.90
2022-12-11T11:01:03.391Z,-0.90
2022-12-11T11:02:03.379Z,-0.90
2022-12-11T11:03:03.291Z,-0.90
2022-12-11T11:04:03.198Z,-1.00
2022-12-11T11:05:04.046Z,-1.00
2022-12-11T11:06:03.103Z,-1.00
2022-12-11T11:07:03.188Z,-1.00
2022-12-11T11:08:03.152Z,-1.00
2022-12-11T11:09:03.021Z,-1.10
2022-12-11T11:10:03.026Z,-1.10
2022-12-11T11:11:03.054Z,-1.10
2022-12-11T11:12:07.565Z,-1.10
2022-12-11T11:13:02.852Z,-1.10
2022-12-11T11:14:02.911Z,-1.10
2022-12-11T11:15:02.806Z,-1.20
2022-12-11T11:16:02.758Z,-1.20
2022-12-11T11:17:02.774Z,-1.20
2022-12-11T11:18:02.671Z,-1.30
2022-12-11T11:19:02.587Z,-1.30
2022-12-11T11:20:03.565Z,-1.30
2022-12-11T11:21:03.446Z,-1.30
2022-12-11T11:22:03.515Z,-1.30
2022-12-11T11:23:03.457Z,-1.30
2022-12-11T11:24:03.284Z,-1.30
2022-12-11T11:25:03.304Z,-1.30
2022-12-11T11:26:03.198Z,-1.40
2022-12-11T11:27:13.931Z,-1.30
2022-12-11T11:28:03.072Z,-1.40
2022-12-11T11:29:03.024Z,-1.40
2022-12-11T11:30:02.997Z,-1.40
2022-12-11T11:31:02.953Z,-1.40
2022-12-11T11:32:02.815Z,-1.40
2022-12-11T11:33:02.842Z,-1.40
2022-12-11T11:34:02.651Z,-1.40
2022-12-11T11:35:03.558Z,-1.40
2022-12-11T11:36:03.605Z,-1.40
2022-12-11T11:37:03.495Z,-1.30
2022-12-11T11:38:03.450Z,-1.30
2022-12-11T11:39:03.330Z,-1.30
2022-12-11T11:40:03.274Z,-1.40
2022-12-11T11:41:06.677Z,-1.30
2022-12-11T11:42:03.106Z,-1.30
2022-12-11T11:43:03.055Z,-1.30
2022-12-11T11:44:02.945Z,-1.30
2022-12-11T11:45:02.922Z,-1.30
2022-12-11T11:46:02.977Z,-1.30
2022-12-11T11:47:03.060Z,-1.30
2022-12-11T11:48:06.336Z,-1.30
2022-12-11T11:49:02.937Z,-1.20
2022-12-11T11:50:02.899Z,-1.20
2022-12-11T11:51:02.774Z,-1.20
2022-12-11T11:52:02.709Z,-1.20
2022-12-11T11:53:02.668Z,-1.20
2022-12-11T11:54:03.566Z,-1.20
2022-12-11T11:55:03.451Z,-1.20
2022-12-11T11:56:03.376Z,-1.20
2022-12-11T11:57:03.364Z,-1.10
2022-12-11T11:58:03.295Z,-1.10
2022-12-11T11:59:03.195Z,-1.10
2022-12-11T12:00:03.150Z,-1.10
2022-12-11T12:01:03.109Z,-1.10
2022-12-11T12:02:03.027Z,-1.10
2022-12-11T12:03:03.084Z,-1.10
2022-12-11T12:04:02.906Z,-1.10
2022-12-11T12:05:02.848Z,-1.10
2022-12-11T12:06:02.909Z,-1.10
2022-12-11T12:07:02.781Z,-1.10
2022-12-11T12:08:02.864Z,-1.10
2022-12-11T12:09:02.685Z,-1.10
2022-12-11T12:10:02.719Z,-1.10
2022-12-11T12:11:03.625Z,-1.10
2022-12-11T12:12:02.575Z,-1.10
2022-12-11T12:13:02.721Z,-1.10
2022-12-11T12:14:12.821Z,-1.10
2022-12-11T12:15:02.827Z,-1.10
2022-12-11T12:16:02.773Z,-1.10
2022-12-11T12:17:02.784Z,-1.00
2022-12-11T12:18:02.811Z,-1.00
2022-12-11T12:19:02.751Z,-1.00
2022-12-11T12:20:02.802Z,-1.00
2022-12-11T12:21:02.681Z,-1.00
2022-12-11T12:22:02.694Z,-1.00
2022-12-11T12:23:02.618Z,-1.00
2022-12-11T12:24:02.641Z,-1.00
2022-12-11T12:25:02.631Z,-1.00
2022-12-11T12:26:02.570Z,-1.00
2022-12-11T12:27:02.662Z,-1.00
2022-12-11T12:28:03.571Z,-0.90
2022-12-11T12:29:04.616Z,-0.90
2022-12-11T12:30:03.393Z,-1.00
2022-12-11T12:31:03.486Z,-0.90
2022-12-11T12:32:03.308Z,-0.90
2022-12-11T12:33:03.253Z,-1.00
2022-12-11T12:34:03.158Z,-1.00
2022-12-11T12:35:03.080Z,-1.00
2022-12-11T12:36:06.752Z,-1.00
2022-12-11T12:37:02.921Z,-1.00
2022-12-11T12:38:02.914Z,-1.00
2022-12-11T12:39:02.804Z,-1.00
2022-12-11T12:40:02.690Z,-1.00
2022-12-11T12:41:02.763Z,-1.00
2022-12-11T12:42:07.418Z,-1.00
2022-12-11T12:43:02.752Z,-1.00
2022-12-11T12:44:02.634Z,-1.00
2022-12-11T12:45:02.570Z,-1.00
2022-12-11T12:46:02.689Z,-1.00
2022-12-11T12:47:03.541Z,-1.00
2022-12-11T12:48:03.526Z,-1.10
2022-12-11T12:49:03.354Z,-1.10
2022-12-11T12:50:03.344Z,-1.10
2022-12-11T12:51:03.356Z,-1.10
2022-12-11T12:52:03.195Z,-1.10